Time;durP1;ratioP1;P1;durP2;ratioP2;P2;SDS_P1;SDS_P2;PMS_P1;PMS_P2;Temp;Humidity;BMP_temperature;BMP_pressure;BME280_temperature;BME280_humidity;BME280_pressure;Samples;Min_cycle;Max_cycle;Signal;HPM_P1;HPM_P2
2021/11/12 00:14:25;;;;;;;5.72;3.22;;;;;;;26.34;30.04;97039.38;5070305;28;20610;-31
2021/11/12 00:16:53;;;;;;;6.70;3.08;;;;;;;26.33;29.90;97037.69;5068949;28;20036;-30
2021/11/12 00:19:18;;;;;;;6.18;3.03;;;;;;;26.33;29.88;97037.69;5065559;28;20079;-29
2021/11/12 00:21:45;;;;;;;3.92;2.70;;;;;;;26.33;29.97;97037.69;5068354;28;20025;-31
2021/11/12 00:24:10;;;;;;;4.72;2.90;;;;;;;26.34;29.95;97033.28;5069178;28;20140;-33
2021/11/12 00:26:36;;;;;;;4.65;2.88;;;;;;;26.32;29.99;97028.09;5069780;28;20506;-34
2021/11/12 00:29:02;;;;;;;4.43;3.00;;;;;;;26.33;30.02;97035.06;5067193;28;20483;-32
2021/11/12 00:39:46;;;;;;;3.88;3.25;;;;;;;26.33;29.91;97045.56;5039360;28;20188;-32
2021/11/12 00:42:25;;;;;;;5.45;2.75;;;;;;;26.33;29.90;97048.22;5062368;28;20076;-33
2021/11/12 00:50:00;;;;;;;5.18;2.92;;;;;;;26.31;30.14;97038.69;5073462;28;20040;-31
2021/11/12 00:53:41;;;;;;;4.15;2.97;;;;;;;26.31;29.89;97044.78;5066537;28;20024;-32
2021/11/12 00:55:27;;;;;;;7.18;3.33;;;;;;;26.31;29.96;97044.78;5069760;28;20492;-30
2021/11/12 00:57:54;;;;;;;4.93;2.60;;;;;;;26.31;29.94;97044.78;5070706;28;20154;-30
2021/11/12 01:00:19;;;;;;;4.53;3.00;;;;;;;26.30;30.04;97047.50;5063366;28;20025;-32
2021/11/12 01:02:45;;;;;;;3.60;2.70;;;;;;;26.29;29.97;97035.28;5069425;28;20028;-32
2021/11/12 01:05:11;;;;;;;3.75;2.75;;;;;;;26.30;30.08;97042.22;5070018;28;20028;-34
2021/11/12 01:07:36;;;;;;;5.10;2.88;;;;;;;26.29;29.88;97037.91;5071624;28;20028;-32
2021/11/12 01:10:03;;;;;;;3.03;2.65;;;;;;;26.29;29.94;97032.66;5073588;28;20027;-31
2021/11/12 01:12:31;;;;;;;3.90;2.70;;;;;;;26.30;29.85;97029.09;5072030;28;20054;-31
2021/11/12 01:14:56;;;;;;;3.63;2.70;;;;;;;26.29;29.85;97025.66;5071315;28;20089;-29
2021/11/12 01:17:23;;;;;;;6.72;2.90;;;;;;;26.29;29.92;97030.03;5070544;28;20492;-30
2021/11/12 01:19:48;;;;;;;5.15;2.80;;;;;;;26.28;29.94;97018.66;5068713;28;20028;-32
2021/11/12 01:22:14;;;;;;;4.85;2.78;;;;;;;26.28;29.99;97018.66;5075017;28;20058;-32
2021/11/12 01:24:39;;;;;;;6.20;2.72;;;;;;;26.29;29.99;97019.53;5067699;28;20035;-32
2021/11/12 01:27:06;;;;;;;4.72;2.72;;;;;;;26.26;29.88;97015.28;5072202;28;20024;-32
2021/11/12 01:29:32;;;;;;;4.13;2.67;;;;;;;26.27;29.98;97013.53;5061730;28;20117;-32
2021/11/12 01:32:13;;;;;;;3.15;2.50;;;;;;;26.26;30.00;97010.03;5048404;28;20024;-33
2021/11/12 01:34:38;;;;;;;3.53;2.42;;;;;;;26.28;30.01;97002.06;5054834;28;20035;-30
2021/11/12 01:37:04;;;;;;;4.43;3.10;;;;;;;26.26;29.99;96999.53;5056739;28;20039;-31
2021/11/12 01:39:30;;;;;;;4.95;2.97;;;;;;;26.26;30.06;96989.00;5054266;28;20032;-30
2021/11/12 01:41:59;;;;;;;3.92;2.65;;;;;;;26.26;29.92;96994.28;5050362;28;20097;-31
2021/11/12 01:44:32;;;;;;;3.42;2.55;;;;;;;26.25;29.92;96987.28;5051574;28;20039;-31
2021/11/12 01:49:30;;;;;;;3.88;2.75;;;;;;;26.23;29.96;96987.38;5070476;28;20029;-33
2021/11/12 01:52:11;;;;;;;4.57;2.58;;;;;;;26.25;30.08;96991.69;5066392;28;20020;-32
2021/11/12 01:54:49;;;;;;;3.67;2.80;;;;;;;26.23;30.06;96989.13;5055078;28;20035;-32
2021/11/12 01:57:53;;;;;;;3.47;2.72;;;;;;;26.23;30.08;96991.75;5073349;28;20858;-33
2021/11/12 02:00:10;;;;;;;3.30;2.90;;;;;;;26.23;29.95;96991.75;5068392;28;20037;-33
2021/11/12 02:02:36;;;;;;;4.57;2.58;;;;;;;26.23;29.99;96989.13;5068936;28;20119;-33
2021/11/12 02:05:02;;;;;;;3.95;2.60;;;;;;;26.22;30.01;96987.44;5067214;28;20024;-35
2021/11/12 02:07:27;;;;;;;4.15;2.63;;;;;;;26.20;30.02;96984.06;5065823;28;20028;-30
2021/11/12 02:09:52;;;;;;;3.40;2.67;;;;;;;26.19;30.02;96985.81;5067243;28;20512;-32
2021/11/12 02:12:34;;;;;;;3.35;2.70;;;;;;;26.20;30.05;96984.06;5070273;28;20030;-29
2021/11/12 02:15:01;;;;;;;3.40;2.80;;;;;;;26.20;29.94;96982.25;5068993;28;20034;-31
2021/11/12 02:17:30;;;;;;;3.85;2.75;;;;;;;26.20;30.08;96978.81;5069314;28;20039;-30
2021/11/12 02:22:33;;;;;;;2.63;2.38;;;;;;;26.19;30.11;96971.84;5071425;28;20040;-33
2021/11/12 02:25:21;;;;;;;3.72;2.55;;;;;;;26.19;30.15;96977.09;5070318;28;20063;-35
2021/11/12 02:27:56;;;;;;;3.45;2.60;;;;;;;26.18;29.95;96970.13;5066258;28;20053;-31
2021/11/12 02:30:32;;;;;;;3.13;2.58;;;;;;;26.18;30.15;96972.75;5069578;28;20036;-28
2021/11/12 02:33:00;;;;;;;3.20;2.38;;;;;;;26.17;30.15;96964.06;5072848;28;20109;-31
2021/11/12 02:35:26;;;;;;;3.25;2.40;;;;;;;26.16;30.08;96961.50;5066293;28;20038;-30
2021/11/12 02:37:51;;;;;;;3.20;2.38;;;;;;;26.16;30.05;96957.09;5067714;28;20590;-30
2021/11/12 02:40:17;;;;;;;3.85;2.80;;;;;;;26.16;29.94;96958.88;5069268;28;20031;-31
2021/11/12 02:42:42;;;;;;;2.85;2.40;;;;;;;26.16;29.99;96946.56;5067652;28;20027;-33
2021/11/12 02:45:08;;;;;;;2.63;2.35;;;;;;;26.16;30.05;96951.84;5065757;28;20035;-31
2021/11/12 02:47:33;;;;;;;3.63;2.42;;;;;;;26.15;29.99;96944.88;5070784;28;20120;-30
2021/11/12 02:49:59;;;;;;;3.58;2.70;;;;;;;26.16;29.96;96940.50;5065456;28;20037;-34
2021/11/12 02:52:24;;;;;;;3.08;2.42;;;;;;;26.16;29.99;96945.75;5067452;28;20054;-31
2021/11/12 02:54:50;;;;;;;3.63;2.40;;;;;;;26.15;30.03;96946.66;5070171;28;20032;-34
2021/11/12 02:57:16;;;;;;;3.25;2.30;;;;;;;26.15;30.06;96941.41;5070290;28;20025;-35
2021/11/12 02:59:42;;;;;;;2.97;2.40;;;;;;;26.15;30.12;96938.78;5069819;28;20642;-31
2021/11/12 03:02:08;;;;;;;4.70;2.60;;;;;;;26.15;30.00;96933.53;5067326;28;20085;-31
2021/11/12 03:04:33;;;;;;;2.40;2.20;;;;;;;26.14;29.99;96931.81;5068715;28;20028;-31
2021/11/12 03:06:59;;;;;;;4.40;2.40;;;;;;;26.15;29.94;96933.53;5067882;28;20035;-31
2021/11/12 03:09:28;;;;;;;2.80;2.30;;;;;;;26.13;29.99;96941.50;5069406;28;20032;-32
2021/11/12 03:11:54;;;;;;;3.45;2.38;;;;;;;26.15;30.08;96938.78;5068961;28;20033;-32
2021/11/12 03:14:21;;;;;;;3.72;2.80;;;;;;;26.14;30.26;96942.34;5068444;28;20038;-32
2021/11/12 03:16:46;;;;;;;3.28;2.38;;;;;;;26.14;30.08;96937.09;5069152;28;20032;-31
2021/11/12 03:19:12;;;;;;;3.28;2.40;;;;;;;26.13;29.99;96932.75;5064339;28;20078;-33
2021/11/12 03:21:39;;;;;;;3.90;2.63;;;;;;;26.13;30.12;96935.38;5065597;28;20036;-31
2021/11/12 04:01:53;;;;;;;2.58;2.30;;;;;;;26.06;30.17;96925.22;5067227;28;20085;-31
2021/11/12 04:04:29;;;;;;;2.63;2.05;;;;;;;26.07;30.16;96931.31;5065318;28;20342;-29
2021/11/12 04:40:05;;;;;;;2.47;2.15;;;;;;;25.98;29.86;96916.88;5072081;28;20055;-31
2021/11/12 05:44:18;;;;;;;2.55;2.00;;;;;;;25.92;30.14;96911.94;5068116;28;20362;-30
2021/11/12 05:52:11;;;;;;;2.60;2.00;;;;;;;25.90;30.13;96906.75;5070917;28;20115;-31
2021/11/12 05:57:21;;;;;;;2.40;2.17;;;;;;;25.91;30.19;96895.34;5066924;28;20036;-30
2021/11/12 05:59:46;;;;;;;2.47;1.70;;;;;;;25.90;30.01;96895.44;5066206;28;20020;-30
2021/11/12 06:02:12;;;;;;;2.83;2.08;;;;;;;25.89;30.06;96897.19;5067208;28;20020;-34
2021/11/12 06:04:37;;;;;;;4.18;2.00;;;;;;;25.91;30.20;96894.50;5067221;28;20631;-31
2021/11/12 06:07:03;;;;;;;2.70;2.08;;;;;;;25.89;30.14;96893.75;5067382;28;20049;-29
2021/11/12 06:09:28;;;;;;;2.35;1.80;;;;;;;25.90;30.06;96892.81;5069419;28;20024;-29
2021/11/12 06:11:54;;;;;;;2.00;1.80;;;;;;;25.90;30.11;96895.44;5072426;28;20028;-33
2021/11/12 06:14:23;;;;;;;2.58;2.00;;;;;;;25.90;30.03;96896.25;5067855;28;20032;-29
2021/11/12 06:16:49;;;;;;;2.00;1.80;;;;;;;25.90;30.03;96882.31;5070536;28;20071;-31
2021/11/12 06:19:15;;;;;;;2.20;2.00;;;;;;;25.90;30.04;96890.19;5070091;28;20028;-30
2021/11/12 06:21:40;;;;;;;1.67;1.55;;;;;;;25.90;30.02;96893.63;5067844;28;20036;-32
2021/11/12 06:24:05;;;;;;;2.63;2.08;;;;;;;25.90;30.16;96888.38;5070503;28;20050;-29
2021/11/12 06:26:31;;;;;;;1.95;1.75;;;;;;;25.90;30.16;96890.19;5072123;28;20036;-34
2021/11/12 06:28:58;;;;;;;2.28;2.00;;;;;;;25.89;30.14;96891.13;5072138;28;20039;-31
2021/11/12 06:31:24;;;;;;;1.98;1.75;;;;;;;25.88;30.01;96890.25;5065559;28;20494;-33
2021/11/12 06:33:49;;;;;;;2.30;1.80;;;;;;;25.89;30.16;96902.44;5069134;28;20070;-31
2021/11/12 06:36:16;;;;;;;1.95;1.75;;;;;;;25.90;30.10;96908.56;5067968;28;20660;-28
2021/11/12 06:38:41;;;;;;;2.10;1.73;;;;;;;25.87;29.98;96903.44;5073069;28;20055;-31
2021/11/12 06:41:10;;;;;;;1.70;1.60;;;;;;;25.90;30.11;96913.81;5067678;28;20028;-33
2021/11/12 06:51:31;;;;;;;2.78;1.80;;;;;;;25.90;30.02;96905.94;5065395;28;20047;-29
2021/11/12 06:53:57;;;;;;;2.13;1.63;;;;;;;25.89;30.14;96906.88;5066768;28;20016;-31
2021/11/12 06:56:23;;;;;;;2.95;1.70;;;;;;;25.89;30.20;96907.69;5069455;28;20064;-32
2021/11/12 06:58:49;;;;;;;2.00;1.80;;;;;;;25.89;30.14;96901.63;5070435;28;20112;-32
2021/11/12 07:01:15;;;;;;;2.17;1.98;;;;;;;25.91;30.15;96911.09;5063603;28;20027;-31
2021/11/12 07:03:40;;;;;;;2.30;1.90;;;;;;;25.90;30.17;96904.13;5067260;28;20032;-35
2021/11/12 07:06:06;;;;;;;2.05;1.80;;;;;;;25.91;30.08;96905.00;5066944;28;20039;-31
2021/11/12 07:08:32;;;;;;;2.17;1.92;;;;;;;25.91;29.98;96905.00;5066658;28;20044;-31
2021/11/12 07:10:57;;;;;;;1.55;1.45;;;;;;;25.92;30.15;96909.31;5071730;28;20515;-32
2021/11/12 07:13:28;;;;;;;2.50;1.88;;;;;;;25.92;30.14;96904.06;5067960;28;20090;-31
2021/11/12 07:15:54;;;;;;;4.25;1.90;;;;;;;25.91;29.94;96897.13;5066761;28;20515;-30
2021/11/12 07:18:20;;;;;;;3.28;2.50;;;;;;;25.92;29.93;96902.28;5062913;28;20130;-31
2021/11/12 07:20:46;;;;;;;20.10;4.65;;;;;;;25.92;29.60;96896.19;5082765;28;20036;-32
2021/11/12 07:23:13;;;;;;;13.77;4.68;;;;;;;25.90;29.47;96898.06;5068967;28;20070;-33
2021/11/12 07:25:39;;;;;;;35.47;5.50;;;;;;;25.88;29.43;96895.50;5068835;28;20027;-32
2021/11/12 07:28:04;;;;;;;19.25;5.93;;;;;;;25.87;29.52;96895.56;5070776;28;20396;-31
2021/11/12 07:30:30;;;;;;;13.30;5.03;;;;;;;25.86;29.84;96891.25;5070260;28;20552;-32
2021/11/12 07:32:56;;;;;;;19.45;5.03;;;;;;;25.86;29.77;96899.13;5069450;28;20111;-34
2021/11/12 07:35:26;;;;;;;9.32;4.53;;;;;;;25.85;29.98;96892.19;5049192;28;20044;-32
2021/11/12 07:37:57;;;;;;;10.98;4.43;;;;;;;25.86;29.82;96893.88;5066666;28;20075;-33
2021/11/12 07:40:36;;;;;;;10.57;5.00;;;;;;;25.87;30.01;96888.56;5068379;28;20021;-32
2021/11/12 07:45:37;;;;;;;12.68;4.53;;;;;;;25.89;30.01;96893.75;5069917;28;20035;-34
2021/11/12 07:48:02;;;;;;;8.65;4.10;;;;;;;25.86;30.05;96886.00;5070235;28;20032;-31
2021/11/12 07:50:28;;;;;;;9.32;4.15;;;;;;;25.91;29.90;96894.50;5067171;28;20028;-37
2021/11/12 07:52:53;;;;;;;11.05;3.92;;;;;;;25.91;30.12;96884.84;5068376;28;20032;-32
2021/11/12 07:55:18;;;;;;;8.02;3.72;;;;;;;25.93;30.02;96893.47;5067815;28;20027;-31
2021/11/12 07:57:44;;;;;;;11.13;4.20;;;;;;;25.95;29.91;96890.78;5064809;28;20036;-34
2021/11/12 08:00:10;;;;;;;6.75;3.40;;;;;;;25.95;30.16;96877.66;5069472;28;20031;-30
2021/11/12 08:02:35;;;;;;;6.90;3.75;;;;;;;25.95;29.99;96885.53;5069803;28;20032;-34
2021/11/12 08:05:08;;;;;;;7.93;3.92;;;;;;;25.95;30.04;96891.63;5068583;28;20028;-36
2021/11/12 08:07:34;;;;;;;7.57;3.70;;;;;;;25.96;30.13;96887.22;5069608;28;20123;-34
2021/11/12 08:10:00;;;;;;;6.65;3.80;;;;;;;25.97;30.06;96888.91;5067825;28;20033;-35
2021/11/12 08:12:31;;;;;;;7.10;3.33;;;;;;;25.97;30.18;96873.16;5069827;28;20038;-31
2021/11/12 08:23:20;;;;;;;9.38;3.53;;;;;;;25.97;29.95;96862.66;5069619;28;20665;-33
2021/11/12 08:25:48;;;;;;;7.73;3.97;;;;;;;25.98;29.93;96855.63;5067215;28;20044;-33
2021/11/12 08:28:38;;;;;;;9.60;3.50;;;;;;;25.96;30.07;96859.19;5067529;28;20111;-36
2021/11/12 08:31:22;;;;;;;9.98;3.75;;;;;;;25.95;29.98;96854.03;5069777;28;20476;-34
2021/11/12 08:33:52;;;;;;;8.23;3.80;;;;;;;25.96;30.01;96853.09;5067498;28;20032;-31
2021/11/12 08:41:45;;;;;;;5.40;3.08;;;;;;;25.99;30.15;96842.44;5069293;28;20040;-31
2021/11/12 08:44:29;;;;;;;7.23;3.53;;;;;;;25.99;30.32;96845.06;5067651;28;20424;-33
2021/11/12 08:47:05;;;;;;;6.95;3.33;;;;;;;25.99;30.28;96845.06;5068297;28;20270;-34
2021/11/12 08:49:32;;;;;;;7.18;3.30;;;;;;;26.02;30.25;96852.78;5066612;28;20093;-30
2021/11/12 08:51:59;;;;;;;8.82;3.53;;;;;;;26.01;30.40;96844.97;5069323;28;21025;-34
2021/11/12 08:54:28;;;;;;;7.72;3.53;;;;;;;26.02;30.45;96844.91;5071819;28;20873;-33
2021/11/12 08:56:53;;;;;;;5.68;3.03;;;;;;;26.03;30.54;96836.09;5074670;28;20053;-37
2021/11/12 08:59:19;;;;;;;5.13;2.75;;;;;;;26.04;30.42;96829.91;5072352;28;20492;-32
2021/11/12 09:01:45;;;;;;;7.65;3.00;;;;;;;26.05;30.49;96828.97;5069901;28;20028;-32
2021/11/12 09:04:11;;;;;;;6.30;3.28;;;;;;;26.05;30.02;96823.72;5067399;28;20035;-34
2021/11/12 09:06:36;;;;;;;17.42;4.50;;;;;;;26.05;29.44;96828.97;5073715;28;20028;-33
2021/11/12 09:09:02;;;;;;;10.63;3.70;;;;;;;26.05;29.49;96828.13;5070115;28;20525;-31
2021/11/12 09:11:28;;;;;;;6.75;3.70;;;;;;;26.03;29.89;96825.59;5073828;28;20048;-34
2021/11/12 09:13:57;;;;;;;9.45;3.55;;;;;;;26.04;29.95;96829.91;5068149;28;20132;-33
2021/11/12 09:16:30;;;;;;;8.57;3.40;;;;;;;26.05;30.06;96828.13;5072023;28;20028;-33
2021/11/12 09:18:56;;;;;;;9.15;3.20;;;;;;;26.05;30.20;96828.97;5070000;28;20598;-33
2021/11/12 09:21:21;;;;;;;4.55;3.17;;;;;;;26.07;30.37;96821.88;5073533;28;20023;-32
2021/11/12 09:23:46;;;;;;;5.38;3.33;;;;;;;26.08;30.31;96823.56;5072325;28;20028;-32
2021/11/12 09:26:12;;;;;;;9.57;3.22;;;;;;;26.10;30.41;96824.31;5074707;28;20453;-33
2021/11/12 09:28:37;;;;;;;6.88;3.38;;;;;;;26.13;30.18;96814.59;5072492;28;20028;-34
2021/11/12 09:31:04;;;;;;;6.35;3.13;;;;;;;26.15;30.12;96825.84;5071668;28;20410;-35
2021/11/12 09:33:29;;;;;;;9.73;3.78;;;;;;;26.17;30.17;96822.22;5073961;28;20032;-33
2021/11/12 09:35:55;;;;;;;23.15;4.90;;;;;;;26.18;30.32;96817.78;5073571;28;20083;-33
2021/11/12 09:38:21;;;;;;;31.77;6.38;;;;;;;26.22;30.18;96819.34;5070711;28;20021;-34
2021/11/12 09:40:47;;;;;;;26.40;6.60;;;;;;;26.23;30.20;96819.25;5068851;28;20040;-33
2021/11/12 09:43:12;;;;;;;32.65;7.28;;;;;;;26.23;30.31;96800.00;5072409;28;20028;-32
2021/11/12 09:45:38;;;;;;;30.77;7.10;;;;;;;26.27;30.22;96806.81;5069138;28;20484;-32
2021/11/12 09:48:04;;;;;;;21.40;5.60;;;;;;;26.26;29.44;96812.16;5071776;28;20595;-35
2021/11/12 09:50:31;;;;;;;32.50;5.97;;;;;;;26.23;29.42;96806.13;5071558;28;20029;-32
2021/11/12 09:52:57;;;;;;;26.85;6.97;;;;;;;26.22;29.63;96803.56;5072385;28;20028;-34
2021/11/12 09:55:22;;;;;;;27.15;6.43;;;;;;;26.20;29.80;96800.19;5070851;28;20427;-34
2021/11/12 09:57:49;;;;;;;26.75;7.13;;;;;;;26.17;29.87;96800.34;5072800;28;20036;-34
2021/11/12 10:00:17;;;;;;;22.10;5.78;;;;;;;26.16;30.06;96794.25;5072819;28;20035;-33
2021/11/12 10:02:44;;;;;;;138.38;13.48;;;;;;;26.16;30.26;96793.41;5064395;28;20046;-32
2021/11/12 10:05:11;;;;;;;85.05;11.05;;;;;;;26.14;30.28;96787.38;5069966;28;20041;-33
2021/11/12 10:07:38;;;;;;;136.52;12.38;;;;;;;26.13;30.51;96789.19;5070529;28;20059;-33
2021/11/12 10:10:11;;;;;;;75.90;10.27;;;;;;;26.12;30.68;96787.47;5070423;28;20548;-34
2021/11/12 10:12:47;;;;;;;54.10;7.90;;;;;;;26.10;30.56;96779.66;5070180;28;20047;-32
2021/11/12 10:15:15;;;;;;;51.22;8.25;;;;;;;26.09;30.74;96777.97;5071495;28;20123;-33
2021/11/12 10:17:41;;;;;;;44.40;6.80;;;;;;;26.09;31.05;96772.72;5067310;28;20027;-33
2021/11/12 10:20:08;;;;;;;44.28;6.90;;;;;;;26.09;31.02;96769.25;5071096;28;20028;-33
2021/11/12 10:22:35;;;;;;;27.60;6.97;;;;;;;26.09;31.20;96766.63;5078248;28;20491;-30
2021/11/12 10:25:03;;;;;;;25.38;6.05;;;;;;;26.09;31.42;96759.59;5073794;28;20036;-33
2021/11/12 10:27:32;;;;;;;29.38;6.15;;;;;;;26.09;31.46;96758.75;5078047;28;20024;-31
2021/11/12 10:29:59;;;;;;;33.00;6.30;;;;;;;26.10;31.47;96755.19;5077032;28;20103;-33
2021/11/12 10:32:29;;;;;;;31.60;6.50;;;;;;;26.10;31.71;96757.81;5078237;28;20186;-32
2021/11/12 10:35:02;;;;;;;25.83;5.63;;;;;;;26.09;31.87;96756.97;5077128;28;20530;-29
2021/11/12 10:37:31;;;;;;;27.42;5.60;;;;;;;26.09;31.91;96751.72;5077937;28;20051;-33
2021/11/12 10:40:04;;;;;;;38.20;6.32;;;;;;;26.10;31.92;96753.41;5078665;28;20109;-31
2021/11/12 10:42:50;;;;;;;23.25;5.22;;;;;;;26.09;31.97;96745.63;5077158;28;20664;-31
2021/11/12 10:45:19;;;;;;;21.35;4.82;;;;;;;26.10;31.97;96742.88;5078554;28;20040;-33
2021/11/12 10:47:47;;;;;;;27.33;4.80;;;;;;;26.09;32.16;96741.19;5081331;28;20034;-33
2021/11/12 10:50:13;;;;;;;17.02;5.22;;;;;;;26.09;31.98;96746.44;5080541;28;20034;-33
2021/11/12 10:52:38;;;;;;;16.50;4.90;;;;;;;26.08;32.11;96742.16;5078642;28;20028;-34
2021/11/12 10:55:07;;;;;;;19.13;4.53;;;;;;;26.10;32.02;96742.88;5078953;28;20024;-35
2021/11/12 10:57:35;;;;;;;21.17;5.35;;;;;;;26.09;32.05;96735.94;5079022;28;20049;-31
2021/11/12 11:00:08;;;;;;;18.50;5.22;;;;;;;26.12;32.14;96739.34;5062057;28;20020;-31
2021/11/12 11:02:45;;;;;;;23.13;4.20;;;;;;;26.12;32.22;96728.84;5069692;28;20095;-32
2021/11/12 11:05:24;;;;;;;23.73;4.65;;;;;;;26.11;32.32;96717.50;5069881;28;20036;-33
2021/11/12 11:07:54;;;;;;;21.15;4.78;;;;;;;26.13;32.18;96717.41;5069932;28;20511;-34
2021/11/12 11:10:21;;;;;;;19.88;4.40;;;;;;;26.12;32.19;96713.09;5073231;28;20594;-32
2021/11/12 11:12:47;;;;;;;19.40;4.40;;;;;;;26.10;32.29;96695.63;5070149;28;20395;-34
2021/11/12 11:15:20;;;;;;;14.20;3.80;;;;;;;26.13;32.23;96704.28;5072633;28;20032;-33
2021/11/12 11:17:48;;;;;;;19.38;4.00;;;;;;;26.14;32.43;96706.81;5057474;28;20040;-31
2021/11/12 11:20:18;;;;;;;17.20;3.60;;;;;;;26.13;32.48;96699.03;5056069;28;20071;-33
2021/11/12 11:22:54;;;;;;;16.02;3.85;;;;;;;26.13;32.66;96685.88;5049154;28;20494;-36
2021/11/12 11:25:20;;;;;;;16.30;4.05;;;;;;;26.13;32.37;96678.00;5071804;28;20031;-35
2021/11/12 11:27:46;;;;;;;16.30;3.70;;;;;;;26.08;32.49;96671.25;5073568;28;20032;-33
2021/11/12 11:30:13;;;;;;;15.27;3.70;;;;;;;26.14;32.51;96688.44;5070001;28;20028;-34
2021/11/12 11:32:39;;;;;;;17.13;3.97;;;;;;;26.15;32.63;96684.88;5071748;28;20168;-33
2021/11/12 11:35:05;;;;;;;13.48;3.38;;;;;;;26.15;32.66;96677.00;5071982;28;20035;-33
2021/11/12 11:37:32;;;;;;;10.30;3.35;;;;;;;26.16;32.58;96675.22;5069719;28;20055;-35
2021/11/12 11:39:58;;;;;;;14.48;3.40;;;;;;;26.16;32.76;96672.59;5052230;28;20465;-34
2021/11/12 11:42:24;;;;;;;11.00;3.45;;;;;;;26.16;32.71;96669.97;5072752;28;20032;-35
2021/11/12 11:44:49;;;;;;;8.77;3.00;;;;;;;26.17;32.62;96669.03;5061909;28;20659;-33
2021/11/12 11:47:19;;;;;;;10.10;3.40;;;;;;;26.17;32.54;96675.13;5070130;28;20043;-32
2021/11/12 11:49:50;;;;;;;14.07;3.25;;;;;;;26.17;32.62;96669.03;5070517;28;20032;-33
2021/11/12 11:52:19;;;;;;;21.55;3.70;;;;;;;26.17;32.49;96669.88;5067519;28;20019;-36
2021/11/12 11:54:46;;;;;;;27.25;9.45;;;;;;;26.17;32.55;96669.03;5053847;28;20039;-32
2021/11/12 11:57:13;;;;;;;40.85;13.98;;;;;;;26.18;32.59;96682.09;5070783;28;20106;-33
2021/11/12 11:59:40;;;;;;;27.58;10.23;;;;;;;26.18;32.47;96670.72;5071066;28;20024;-33
2021/11/12 12:02:19;;;;;;;26.98;8.52;;;;;;;26.18;32.70;96660.22;5066691;28;20031;-36
2021/11/12 12:04:58;;;;;;;18.83;6.47;;;;;;;26.19;32.79;96649.63;5077971;28;20090;-37
2021/11/12 12:07:37;;;;;;;16.75;5.80;;;;;;;26.19;32.82;96647.00;5068586;28;20708;-34
2021/11/12 12:10:03;;;;;;;21.45;6.13;;;;;;;26.21;32.76;96644.28;5072199;28;20655;-34
2021/11/12 12:12:31;;;;;;;18.27;5.57;;;;;;;26.20;33.08;96643.44;5070570;28;20046;-34
2021/11/12 12:15:03;;;;;;;19.23;5.18;;;;;;;26.21;32.97;96639.84;5071610;28;20044;-31
2021/11/12 12:17:28;;;;;;;18.30;5.72;;;;;;;26.22;32.96;96635.47;5072979;28;20031;-34
2021/11/12 13:25:27;;;;;;;7.88;3.22;;;;;;;26.47;34.17;96552.63;5071125;28;20121;-37
2021/11/12 13:28:10;;;;;;;9.35;3.22;;;;;;;26.59;34.12;96546.63;5072131;28;20027;-39
2021/11/12 13:30:36;;;;;;;9.75;3.13;;;;;;;26.71;33.63;96552.06;5069731;28;20035;-33
2021/11/12 13:33:02;;;;;;;6.65;3.30;;;;;;;26.84;33.47;96544.28;5072743;28;20059;-34
2021/11/12 13:35:34;;;;;;;7.50;3.13;;;;;;;26.97;33.19;96544.41;5071625;28;20447;-31
2021/11/12 13:38:01;;;;;;;9.02;3.03;;;;;;;27.11;32.91;96546.16;5066255;28;20020;-32
2021/11/12 13:40:31;;;;;;;12.00;3.63;;;;;;;27.22;32.50;96538.47;5069348;28;20369;-35
2021/11/12 13:42:56;;;;;;;10.52;3.40;;;;;;;27.36;32.46;96542.84;5067332;28;20032;-34
2021/11/12 13:45:23;;;;;;;8.30;3.55;;;;;;;27.49;32.29;96542.03;5069435;28;20039;-34
2021/11/12 13:48:09;;;;;;;7.40;3.08;;;;;;;27.60;31.92;96542.22;5070603;28;20814;-37
2021/11/12 13:50:34;;;;;;;7.95;3.08;;;;;;;27.71;31.80;96536.28;5065015;28;20028;-37
2021/11/12 13:53:01;;;;;;;10.13;3.20;;;;;;;27.81;31.43;96535.69;5071007;28;20035;-33
2021/11/12 13:55:27;;;;;;;8.30;3.22;;;;;;;27.91;31.49;96534.13;5070243;28;20628;-31
2021/11/12 13:57:56;;;;;;;7.95;2.92;;;;;;;27.99;31.38;96539.72;5049487;28;20036;-32
2021/11/12 14:00:26;;;;;;;7.70;2.55;;;;;;;28.07;30.93;96536.56;5070783;28;20052;-33
2021/11/12 14:03:04;;;;;;;8.15;2.70;;;;;;;28.13;31.08;96546.72;5068359;28;20081;-32
2021/11/12 14:05:29;;;;;;;7.63;2.80;;;;;;;28.16;30.94;96535.97;5070217;28;20058;-30
2021/11/12 14:08:21;;;;;;;12.15;3.90;;;;;;;28.23;30.72;96540.81;5069322;28;20565;-32
2021/11/12 14:10:48;;;;;;;30.08;15.30;;;;;;;28.25;29.05;96538.91;5068796;28;20048;-32
2021/11/12 14:13:16;;;;;;;29.63;14.68;;;;;;;28.16;26.51;96551.78;5069734;28;20060;-35
2021/11/12 14:15:55;;;;;;;20.45;14.80;;;;;;;28.01;25.00;96552.78;5071169;28;20126;-34
2021/11/12 14:21:10;;;;;;;22.15;14.10;;;;;;;27.58;25.19;96554.59;5071121;28;20044;-35
2021/11/12 14:29:38;;;;;;;16.27;10.05;;;;;;;27.20;26.83;96573.69;5070752;28;20070;-34
2021/11/12 14:35:13;;;;;;;20.60;10.23;;;;;;;27.09;27.35;96583.09;5085282;28;20112;-36
2021/11/12 14:38:10;;;;;;;19.23;9.30;;;;;;;27.06;27.70;96582.44;5071202;28;20027;-33
2021/11/12 14:46:39;;;;;;;16.63;7.63;;;;;;;26.96;28.48;96604.03;5060615;28;20043;-32
2021/11/12 14:54:31;;;;;;;17.60;7.90;;;;;;;26.90;28.75;96598.28;5069184;28;20410;-31
2021/11/12 14:56:58;;;;;;;13.27;7.10;;;;;;;26.88;28.99;96601.00;5071264;28;20036;-34
2021/11/12 14:59:24;;;;;;;10.90;6.75;;;;;;;26.87;29.09;96591.41;5070081;28;20078;-33
2021/11/12 15:01:49;;;;;;;13.10;6.43;;;;;;;26.85;29.14;96596.78;5064948;28;20024;-32
2021/11/12 15:04:16;;;;;;;12.30;6.07;;;;;;;26.85;29.10;96596.78;5072375;28;20047;-37
2021/11/12 15:06:42;;;;;;;15.52;6.30;;;;;;;26.84;29.31;96602.97;5069891;28;20833;-34
2021/11/12 15:09:15;;;;;;;11.35;6.00;;;;;;;26.83;29.35;96609.19;5070111;28;20024;-33
2021/11/12 15:11:41;;;;;;;15.05;6.05;;;;;;;26.83;29.42;96609.19;5069828;28;20107;-34
2021/11/12 15:14:09;;;;;;;15.63;6.25;;;;;;;26.83;29.36;96609.19;5068270;28;20274;-33
2021/11/12 15:16:35;;;;;;;15.50;6.57;;;;;;;26.83;29.51;96614.44;5070646;28;20112;-33
2021/11/12 15:19:03;;;;;;;19.50;8.57;;;;;;;26.82;29.67;96612.75;5071376;28;20028;-33
2021/11/12 15:21:36;;;;;;;20.02;9.55;;;;;;;26.82;29.71;96610.13;5070577;28;20495;-32
2021/11/12 15:34:14;;;;;;;34.50;13.40;;;;;;;26.81;30.73;96599.69;5069166;28;20048;-35
2021/11/12 15:39:30;;;;;;;31.85;12.35;;;;;;;26.79;31.05;96610.28;5069921;28;20468;-34
2021/11/12 15:46:07;;;;;;;31.52;11.35;;;;;;;-148.56;100.00;61375.16;5056257;28;20086;-32
2021/11/12 15:48:26;;;;;;;25.55;10.10;;;;;;;26.73;31.04;96613.28;5070556;28;20044;-35
2021/11/12 15:58:59;;;;;;;14.45;7.45;;;;;;;26.73;30.92;96608.03;5068594;28;20051;-34
2021/11/12 16:04:25;;;;;;;26.55;9.15;;;;;;;26.71;30.93;96610.75;5068361;28;20088;-31
2021/11/12 16:12:09;;;;;;;16.33;10.50;;;;;;;26.64;28.05;96622.56;5068567;28;20048;-37
2021/11/12 16:27:30;;;;;;;16.13;5.43;;;;;;;25.85;27.66;96643.63;5067018;28;20173;-35
2021/11/12 16:29:59;;;;;;;10.88;5.40;;;;;;;25.85;28.07;96638.38;5059273;28;20029;-30
2021/11/12 16:35:03;;;;;;;7.45;5.25;;;;;;;25.87;28.79;96631.28;5067833;28;20028;-31
2021/11/12 16:37:31;;;;;;;6.95;4.70;;;;;;;25.90;29.00;96625.84;5066903;28;20031;-34
2021/11/12 16:40:00;;;;;;;8.68;4.90;;;;;;;25.96;29.04;96625.53;5065670;28;20024;-32
2021/11/12 16:42:36;;;;;;;6.95;4.35;;;;;;;26.05;29.01;96626.75;5071105;28;20032;-32
2021/11/12 16:50:47;;;;;;;7.80;4.45;;;;;;;26.41;29.00;96634.44;5068364;28;20067;-33
2021/11/12 16:55:43;;;;;;;8.73;4.22;;;;;;;26.73;28.79;96629.03;5069304;28;20198;-32
2021/11/12 16:58:21;;;;;;;8.98;4.07;;;;;;;26.91;28.44;96634.13;5069467;28;20032;-32
2021/11/12 17:03:24;;;;;;;6.20;3.85;;;;;;;27.19;27.94;96619.34;5068798;28;20519;-32
2021/11/12 17:14:09;;;;;;;7.38;3.95;;;;;;;27.64;27.56;96617.44;5062781;28;20556;-33
2021/11/12 17:16:56;;;;;;;5.90;3.50;;;;;;;27.75;27.44;96622.03;5069929;28;20024;-35
2021/11/12 18:02:07;;;;;;;12.35;5.90;;;;;;;28.34;28.44;96649.00;5051860;28;20043;-35
2021/11/12 18:07:17;;;;;;;10.02;5.38;;;;;;;28.40;28.61;96648.63;5050873;28;20032;-36
2021/11/12 18:10:14;;;;;;;12.95;5.63;;;;;;;28.41;28.27;96650.31;5049452;28;20033;-34
2021/11/12 18:12:57;;;;;;;15.52;6.45;;;;;;;28.43;28.40;96658.97;5046224;28;20052;-37
2021/11/12 18:21:35;;;;;;;17.52;6.88;;;;;;;28.47;28.54;96654.31;5049102;28;20703;-33